sensor_id;sensor_type;location;lat;lon;timestamp;P1;durP1;ratioP1;P2;durP2;ratioP2
74495;SDS011;62979;55.720;37.606;2023-07-13T00:02:14;3.42;;;1.30;;
74495;SDS011;62979;55.720;37.606;2023-07-13T00:04:41;1.88;;;0.77;;
74495;SDS011;62979;55.720;37.606;2023-07-13T00:07:08;2.65;;;1.30;;
74495;SDS011;62979;55.720;37.606;2023-07-13T00:09:35;2.72;;;1.33;;
74495;SDS011;62979;55.720;37.606;2023-07-13T00:12:04;7.22;;;1.30;;
74495;SDS011;62979;55.720;37.606;2023-07-13T00:14:47;2.65;;;1.25;;
74495;SDS011;62979;55.720;37.606;2023-07-13T00:17:14;3.83;;;1.58;;
74495;SDS011;62979;55.720;37.606;2023-07-13T00:19:41;2.55;;;1.20;;
74495;SDS011;62979;55.720;37.606;2023-07-13T00:22:08;4.85;;;1.42;;
74495;SDS011;62979;55.720;37.606;2023-07-13T00:24:35;4.35;;;1.08;;
74495;SDS011;62979;55.720;37.606;2023-07-13T00:27:08;2.10;;;0.98;;
74495;SDS011;62979;55.720;37.606;2023-07-13T00:29:35;2.65;;;1.13;;
74495;SDS011;62979;55.720;37.606;2023-07-13T00:32:02;4.28;;;1.08;;
74495;SDS011;62979;55.720;37.606;2023-07-13T00:34:29;3.72;;;1.25;;
74495;SDS011;62979;55.720;37.606;2023-07-13T00:36:56;3.00;;;1.40;;
74495;SDS011;62979;55.720;37.606;2023-07-13T00:39:24;3.30;;;1.05;;
74495;SDS011;62979;55.720;37.606;2023-07-13T00:41:51;3.80;;;1.40;;
74495;SDS011;62979;55.720;37.606;2023-07-13T00:44:20;2.47;;;1.55;;
74495;SDS011;62979;55.720;37.606;2023-07-13T00:46:48;2.15;;;1.00;;
74495;SDS011;62979;55.720;37.606;2023-07-13T00:49:16;3.53;;;0.90;;
74495;SDS011;62979;55.720;37.606;2023-07-13T00:51:48;2.08;;;1.10;;
74495;SDS011;62979;55.720;37.606;2023-07-13T00:57:08;3.75;;;1.52;;
74495;SDS011;62979;55.720;37.606;2023-07-13T00:59:45;3.88;;;1.08;;
74495;SDS011;62979;55.720;37.606;2023-07-13T01:02:18;2.58;;;1.27;;
74495;SDS011;62979;55.720;37.606;2023-07-13T01:04:47;2.08;;;1.63;;
74495;SDS011;62979;55.720;37.606;2023-07-13T01:07:14;3.08;;;1.42;;
74495;SDS011;62979;55.720;37.606;2023-07-13T01:09:42;4.32;;;1.55;;
74495;SDS011;62979;55.720;37.606;2023-07-13T01:12:10;4.47;;;1.30;;
74495;SDS011;62979;55.720;37.606;2023-07-13T01:14:37;3.45;;;1.35;;
74495;SDS011;62979;55.720;37.606;2023-07-13T01:17:05;1.30;;;0.98;;
74495;SDS011;62979;55.720;37.606;2023-07-13T01:19:35;4.07;;;1.75;;
74495;SDS011;62979;55.720;37.606;2023-07-13T01:22:07;7.63;;;2.30;;
74495;SDS011;62979;55.720;37.606;2023-07-13T01:24:37;3.33;;;1.52;;
74495;SDS011;62979;55.720;37.606;2023-07-13T01:27:06;3.05;;;1.40;;
74495;SDS011;62979;55.720;37.606;2023-07-13T01:29:35;3.88;;;1.60;;
74495;SDS011;62979;55.720;37.606;2023-07-13T01:32:07;3.40;;;2.10;;
74495;SDS011;62979;55.720;37.606;2023-07-13T01:34:35;2.55;;;1.20;;
74495;SDS011;62979;55.720;37.606;2023-07-13T01:39:32;3.60;;;1.48;;
74495;SDS011;62979;55.720;37.606;2023-07-13T01:41:59;1.90;;;1.20;;
74495;SDS011;62979;55.720;37.606;2023-07-13T01:44:26;3.28;;;2.60;;
74495;SDS011;62979;55.720;37.606;2023-07-13T01:46:53;3.15;;;1.20;;
74495;SDS011;62979;55.720;37.606;2023-07-13T01:49:20;2.92;;;1.17;;
74495;SDS011;62979;55.720;37.606;2023-07-13T01:51:47;4.10;;;1.60;;
74495;SDS011;62979;55.720;37.606;2023-07-13T01:54:14;3.13;;;1.58;;
74495;SDS011;62979;55.720;37.606;2023-07-13T01:56:42;3.67;;;1.63;;
74495;SDS011;62979;55.720;37.606;2023-07-13T01:59:09;3.63;;;1.75;;
74495;SDS011;62979;55.720;37.606;2023-07-13T02:01:36;2.70;;;1.38;;
74495;SDS011;62979;55.720;37.606;2023-07-13T02:04:03;6.40;;;1.50;;
74495;SDS011;62979;55.720;37.606;2023-07-13T02:08:57;4.40;;;1.20;;
74495;SDS011;62979;55.720;37.606;2023-07-13T02:11:25;2.40;;;1.48;;
74495;SDS011;62979;55.720;37.606;2023-07-13T02:13:58;2.30;;;1.13;;
74495;SDS011;62979;55.720;37.606;2023-07-13T02:16:25;1.83;;;1.35;;
74495;SDS011;62979;55.720;37.606;2023-07-13T02:18:52;3.97;;;1.55;;
74495;SDS011;62979;55.720;37.606;2023-07-13T02:21:20;1.90;;;1.10;;
74495;SDS011;62979;55.720;37.606;2023-07-13T02:26:15;1.30;;;1.05;;
74495;SDS011;62979;55.720;37.606;2023-07-13T02:28:42;3.38;;;1.25;;
74495;SDS011;62979;55.720;37.606;2023-07-13T02:31:11;2.22;;;1.10;;
74495;SDS011;62979;55.720;37.606;2023-07-13T02:33:41;2.70;;;1.63;;
74495;SDS011;62979;55.720;37.606;2023-07-13T02:36:08;2.85;;;1.23;;
74495;SDS011;62979;55.720;37.606;2023-07-13T02:38:35;2.42;;;1.40;;
74495;SDS011;62979;55.720;37.606;2023-07-13T02:41:03;1.70;;;1.17;;
74495;SDS011;62979;55.720;37.606;2023-07-13T02:43:30;3.78;;;1.83;;
74495;SDS011;62979;55.720;37.606;2023-07-13T02:45:58;2.45;;;1.30;;
74495;SDS011;62979;55.720;37.606;2023-07-13T02:48:30;2.60;;;1.45;;
74495;SDS011;62979;55.720;37.606;2023-07-13T02:50:57;2.03;;;1.27;;
74495;SDS011;62979;55.720;37.606;2023-07-13T02:53:24;3.35;;;1.58;;
74495;SDS011;62979;55.720;37.606;2023-07-13T02:58:18;2.72;;;1.20;;
74495;SDS011;62979;55.720;37.606;2023-07-13T03:00:46;5.25;;;1.38;;
74495;SDS011;62979;55.720;37.606;2023-07-13T03:03:15;3.42;;;1.73;;
74495;SDS011;62979;55.720;37.606;2023-07-13T03:05:44;2.40;;;1.13;;
74495;SDS011;62979;55.720;37.606;2023-07-13T03:08:15;4.78;;;1.98;;
74495;SDS011;62979;55.720;37.606;2023-07-13T03:10:43;2.92;;;1.52;;
74495;SDS011;62979;55.720;37.606;2023-07-13T03:13:10;3.10;;;1.63;;
74495;SDS011;62979;55.720;37.606;2023-07-13T03:15:37;4.40;;;1.42;;
74495;SDS011;62979;55.720;37.606;2023-07-13T03:18:03;3.60;;;1.50;;
74495;SDS011;62979;55.720;37.606;2023-07-13T03:20:32;3.40;;;1.48;;
74495;SDS011;62979;55.720;37.606;2023-07-13T03:23:01;3.95;;;1.67;;
74495;SDS011;62979;55.720;37.606;2023-07-13T03:25:29;1.50;;;1.15;;
74495;SDS011;62979;55.720;37.606;2023-07-13T03:27:56;3.92;;;1.90;;
74495;SDS011;62979;55.720;37.606;2023-07-13T03:30:22;2.22;;;1.23;;
74495;SDS011;62979;55.720;37.606;2023-07-13T03:32:49;3.78;;;1.30;;
74495;SDS011;62979;55.720;37.606;2023-07-13T03:35:16;5.38;;;2.42;;
74495;SDS011;62979;55.720;37.606;2023-07-13T03:37:43;2.10;;;1.40;;
74495;SDS011;62979;55.720;37.606;2023-07-13T03:40:12;5.32;;;1.50;;
74495;SDS011;62979;55.720;37.606;2023-07-13T03:42:40;2.20;;;1.25;;
74495;SDS011;62979;55.720;37.606;2023-07-13T03:45:07;4.25;;;1.80;;
74495;SDS011;62979;55.720;37.606;2023-07-13T03:47:35;4.50;;;1.63;;
74495;SDS011;62979;55.720;37.606;2023-07-13T03:50:02;3.25;;;1.38;;
74495;SDS011;62979;55.720;37.606;2023-07-13T03:52:30;1.95;;;1.45;;
74495;SDS011;62979;55.720;37.606;2023-07-13T03:54:57;3.90;;;1.48;;
74495;SDS011;62979;55.720;37.606;2023-07-13T03:57:25;4.15;;;1.83;;
74495;SDS011;62979;55.720;37.606;2023-07-13T03:59:52;3.42;;;1.40;;
74495;SDS011;62979;55.720;37.606;2023-07-13T04:02:19;5.22;;;1.45;;
74495;SDS011;62979;55.720;37.606;2023-07-13T04:04:46;2.05;;;1.23;;
74495;SDS011;62979;55.720;37.606;2023-07-13T04:07:13;2.22;;;1.40;;
74495;SDS011;62979;55.720;37.606;2023-07-13T04:09:40;1.95;;;1.40;;
74495;SDS011;62979;55.720;37.606;2023-07-13T04:12:07;6.35;;;2.05;;
74495;SDS011;62979;55.720;37.606;2023-07-13T04:14:35;2.70;;;1.63;;
74495;SDS011;62979;55.720;37.606;2023-07-13T04:17:04;2.67;;;1.70;;
74495;SDS011;62979;55.720;37.606;2023-07-13T04:21:58;4.65;;;1.73;;
74495;SDS011;62979;55.720;37.606;2023-07-13T04:24:24;2.47;;;1.52;;
74495;SDS011;62979;55.720;37.606;2023-07-13T04:26:52;4.82;;;1.83;;
74495;SDS011;62979;55.720;37.606;2023-07-13T04:29:19;2.97;;;0.93;;
74495;SDS011;62979;55.720;37.606;2023-07-13T04:31:47;3.75;;;1.50;;
74495;SDS011;62979;55.720;37.606;2023-07-13T04:34:14;3.15;;;1.75;;
74495;SDS011;62979;55.720;37.606;2023-07-13T04:36:41;3.72;;;2.05;;
74495;SDS011;62979;55.720;37.606;2023-07-13T04:39:08;4.57;;;1.50;;
74495;SDS011;62979;55.720;37.606;2023-07-13T04:41:35;4.45;;;1.63;;
74495;SDS011;62979;55.720;37.606;2023-07-13T04:44:02;4.57;;;2.47;;
74495;SDS011;62979;55.720;37.606;2023-07-13T04:46:29;2.35;;;1.67;;
74495;SDS011;62979;55.720;37.606;2023-07-13T04:48:58;3.88;;;1.38;;
74495;SDS011;62979;55.720;37.606;2023-07-13T04:51:25;2.75;;;1.63;;
74495;SDS011;62979;55.720;37.606;2023-07-13T04:53:52;2.72;;;1.30;;
74495;SDS011;62979;55.720;37.606;2023-07-13T04:56:20;5.93;;;1.58;;
74495;SDS011;62979;55.720;37.606;2023-07-13T04:58:46;4.15;;;1.98;;
74495;SDS011;62979;55.720;37.606;2023-07-13T05:01:13;2.03;;;1.00;;
74495;SDS011;62979;55.720;37.606;2023-07-13T05:03:40;4.10;;;1.73;;
74495;SDS011;62979;55.720;37.606;2023-07-13T05:06:08;3.22;;;1.65;;
74495;SDS011;62979;55.720;37.606;2023-07-13T05:08:36;4.88;;;1.70;;
74495;SDS011;62979;55.720;37.606;2023-07-13T05:11:03;2.30;;;1.75;;
74495;SDS011;62979;55.720;37.606;2023-07-13T05:13:32;3.45;;;1.42;;
74495;SDS011;62979;55.720;37.606;2023-07-13T05:16:00;3.30;;;1.42;;
74495;SDS011;62979;55.720;37.606;2023-07-13T05:18:31;7.40;;;1.83;;
74495;SDS011;62979;55.720;37.606;2023-07-13T05:20:58;6.88;;;1.50;;
74495;SDS011;62979;55.720;37.606;2023-07-13T05:23:29;5.35;;;1.73;;
74495;SDS011;62979;55.720;37.606;2023-07-13T05:25:57;7.53;;;1.83;;
74495;SDS011;62979;55.720;37.606;2023-07-13T05:28:25;4.68;;;1.42;;
74495;SDS011;62979;55.720;37.606;2023-07-13T05:30:53;2.88;;;1.77;;
74495;SDS011;62979;55.720;37.606;2023-07-13T05:33:20;3.53;;;1.48;;
74495;SDS011;62979;55.720;37.606;2023-07-13T05:35:47;2.35;;;1.15;;
74495;SDS011;62979;55.720;37.606;2023-07-13T05:38:14;3.70;;;1.20;;
74495;SDS011;62979;55.720;37.606;2023-07-13T05:40:43;3.20;;;2.00;;
74495;SDS011;62979;55.720;37.606;2023-07-13T05:43:11;4.38;;;1.80;;
74495;SDS011;62979;55.720;37.606;2023-07-13T05:45:40;3.63;;;1.33;;
74495;SDS011;62979;55.720;37.606;2023-07-13T05:48:07;4.30;;;1.40;;
74495;SDS011;62979;55.720;37.606;2023-07-13T05:50:34;5.95;;;1.60;;
74495;SDS011;62979;55.720;37.606;2023-07-13T05:53:01;4.22;;;1.38;;
74495;SDS011;62979;55.720;37.606;2023-07-13T05:55:28;1.85;;;1.40;;
74495;SDS011;62979;55.720;37.606;2023-07-13T05:57:57;2.30;;;1.20;;
74495;SDS011;62979;55.720;37.606;2023-07-13T06:00:24;2.47;;;1.30;;
74495;SDS011;62979;55.720;37.606;2023-07-13T06:02:51;4.57;;;1.77;;
74495;SDS011;62979;55.720;37.606;2023-07-13T06:05:18;6.70;;;1.40;;
74495;SDS011;62979;55.720;37.606;2023-07-13T06:07:45;3.47;;;1.55;;
74495;SDS011;62979;55.720;37.606;2023-07-13T06:10:12;3.70;;;1.50;;
74495;SDS011;62979;55.720;37.606;2023-07-13T06:12:39;4.22;;;1.23;;
74495;SDS011;62979;55.720;37.606;2023-07-13T06:15:09;2.67;;;1.73;;
74495;SDS011;62979;55.720;37.606;2023-07-13T06:17:37;4.15;;;1.63;;
74495;SDS011;62979;55.720;37.606;2023-07-13T06:20:04;1.35;;;0.93;;
74495;SDS011;62979;55.720;37.606;2023-07-13T06:22:33;3.63;;;1.30;;
74495;SDS011;62979;55.720;37.606;2023-07-13T06:25:00;3.45;;;1.45;;
74495;SDS011;62979;55.720;37.606;2023-07-13T06:27:27;9.98;;;4.50;;
74495;SDS011;62979;55.720;37.606;2023-07-13T06:29:54;2.85;;;1.33;;
74495;SDS011;62979;55.720;37.606;2023-07-13T06:32:22;3.05;;;1.25;;
74495;SDS011;62979;55.720;37.606;2023-07-13T06:34:49;3.25;;;1.40;;
74495;SDS011;62979;55.720;37.606;2023-07-13T06:39:43;2.33;;;1.33;;
74495;SDS011;62979;55.720;37.606;2023-07-13T06:42:10;4.18;;;1.55;;
74495;SDS011;62979;55.720;37.606;2023-07-13T06:44:37;2.55;;;1.63;;
74495;SDS011;62979;55.720;37.606;2023-07-13T06:47:04;1.98;;;1.05;;
74495;SDS011;62979;55.720;37.606;2023-07-13T06:49:33;2.80;;;1.58;;
74495;SDS011;62979;55.720;37.606;2023-07-13T06:52:02;2.13;;;1.02;;
74495;SDS011;62979;55.720;37.606;2023-07-13T06:54:29;3.80;;;1.35;;
74495;SDS011;62979;55.720;37.606;2023-07-13T06:56:56;2.03;;;0.93;;
74495;SDS011;62979;55.720;37.606;2023-07-13T06:59:23;3.60;;;0.93;;
74495;SDS011;62979;55.720;37.606;2023-07-13T07:01:50;2.72;;;1.13;;
74495;SDS011;62979;55.720;37.606;2023-07-13T07:04:17;1.70;;;1.15;;
74495;SDS011;62979;55.720;37.606;2023-07-13T07:06:45;1.90;;;1.55;;
74495;SDS011;62979;55.720;37.606;2023-07-13T07:09:12;4.53;;;1.52;;
74495;SDS011;62979;55.720;37.606;2023-07-13T07:11:38;2.53;;;1.38;;
74495;SDS011;62979;55.720;37.606;2023-07-13T07:14:05;3.65;;;1.75;;
74495;SDS011;62979;55.720;37.606;2023-07-13T07:16:33;1.90;;;1.25;;
74495;SDS011;62979;55.720;37.606;2023-07-13T07:19:00;4.55;;;2.00;;
74495;SDS011;62979;55.720;37.606;2023-07-13T07:21:27;2.55;;;0.90;;
74495;SDS011;62979;55.720;37.606;2023-07-13T07:23:56;2.05;;;1.25;;
74495;SDS011;62979;55.720;37.606;2023-07-13T07:26:24;2.10;;;1.02;;
74495;SDS011;62979;55.720;37.606;2023-07-13T07:28:52;3.40;;;1.25;;
74495;SDS011;62979;55.720;37.606;2023-07-13T07:31:18;4.25;;;1.27;;
74495;SDS011;62979;55.720;37.606;2023-07-13T07:33:45;2.60;;;0.82;;
74495;SDS011;62979;55.720;37.606;2023-07-13T07:36:14;2.58;;;1.02;;
74495;SDS011;62979;55.720;37.606;2023-07-13T07:38:41;3.08;;;2.00;;
74495;SDS011;62979;55.720;37.606;2023-07-13T07:41:10;2.60;;;1.23;;
74495;SDS011;62979;55.720;37.606;2023-07-13T07:43:37;3.63;;;1.42;;
74495;SDS011;62979;55.720;37.606;2023-07-13T07:46:04;3.80;;;1.95;;
74495;SDS011;62979;55.720;37.606;2023-07-13T07:48:31;3.35;;;1.42;;
74495;SDS011;62979;55.720;37.606;2023-07-13T07:50:59;3.22;;;1.63;;
74495;SDS011;62979;55.720;37.606;2023-07-13T07:53:25;3.70;;;1.83;;
74495;SDS011;62979;55.720;37.606;2023-07-13T07:55:52;2.97;;;1.45;;
74495;SDS011;62979;55.720;37.606;2023-07-13T07:58:21;3.35;;;1.10;;
74495;SDS011;62979;55.720;37.606;2023-07-13T08:00:48;4.13;;;1.67;;
74495;SDS011;62979;55.720;37.606;2023-07-13T08:03:15;4.20;;;1.35;;
74495;SDS011;62979;55.720;37.606;2023-07-13T08:05:41;2.05;;;1.20;;
74495;SDS011;62979;55.720;37.606;2023-07-13T08:08:08;4.45;;;1.50;;
74495;SDS011;62979;55.720;37.606;2023-07-13T08:10:35;1.83;;;1.05;;
74495;SDS011;62979;55.720;37.606;2023-07-13T08:13:03;2.80;;;1.48;;
74495;SDS011;62979;55.720;37.606;2023-07-13T08:15:31;3.30;;;1.65;;
74495;SDS011;62979;55.720;37.606;2023-07-13T08:17:58;2.08;;;1.45;;
74495;SDS011;62979;55.720;37.606;2023-07-13T08:20:25;2.75;;;1.23;;
74495;SDS011;62979;55.720;37.606;2023-07-13T08:22:52;2.05;;;1.27;;
74495;SDS011;62979;55.720;37.606;2023-07-13T08:25:19;3.58;;;1.85;;
74495;SDS011;62979;55.720;37.606;2023-07-13T08:27:47;4.10;;;1.17;;
74495;SDS011;62979;55.720;37.606;2023-07-13T08:30:13;2.75;;;1.20;;
74495;SDS011;62979;55.720;37.606;2023-07-13T08:32:42;3.63;;;1.48;;
74495;SDS011;62979;55.720;37.606;2023-07-13T08:35:09;3.70;;;1.30;;
74495;SDS011;62979;55.720;37.606;2023-07-13T08:37:36;3.10;;;1.65;;
74495;SDS011;62979;55.720;37.606;2023-07-13T08:40:03;2.40;;;1.65;;
74495;SDS011;62979;55.720;37.606;2023-07-13T08:42:32;3.72;;;1.25;;
74495;SDS011;62979;55.720;37.606;2023-07-13T08:45:12;2.85;;;1.38;;
74495;SDS011;62979;55.720;37.606;2023-07-13T08:47:49;2.38;;;1.60;;
74495;SDS011;62979;55.720;37.606;2023-07-13T08:50:23;6.93;;;1.52;;
74495;SDS011;62979;55.720;37.606;2023-07-13T08:52:57;3.55;;;1.50;;
74495;SDS011;62979;55.720;37.606;2023-07-13T08:55:27;3.80;;;1.38;;
74495;SDS011;62979;55.720;37.606;2023-07-13T08:58:01;3.13;;;1.48;;
74495;SDS011;62979;55.720;37.606;2023-07-13T09:00:39;6.53;;;2.10;;
74495;SDS011;62979;55.720;37.606;2023-07-13T09:03:18;2.67;;;1.55;;
74495;SDS011;62979;55.720;37.606;2023-07-13T09:05:52;3.63;;;2.22;;
74495;SDS011;62979;55.720;37.606;2023-07-13T09:08:30;3.95;;;2.15;;
74495;SDS011;62979;55.720;37.606;2023-07-13T09:11:14;2.45;;;1.80;;
74495;SDS011;62979;55.720;37.606;2023-07-13T09:13:59;4.28;;;1.77;;
74495;SDS011;62979;55.720;37.606;2023-07-13T09:16:46;3.95;;;2.50;;
74495;SDS011;62979;55.720;37.606;2023-07-13T09:19:18;5.47;;;2.95;;
74495;SDS011;62979;55.720;37.606;2023-07-13T09:21:53;5.05;;;2.40;;
74495;SDS011;62979;55.720;37.606;2023-07-13T09:24:28;5.25;;;2.30;;
74495;SDS011;62979;55.720;37.606;2023-07-13T09:27:05;6.72;;;2.42;;
74495;SDS011;62979;55.720;37.606;2023-07-13T09:29:45;9.45;;;2.45;;
74495;SDS011;62979;55.720;37.606;2023-07-13T09:32:21;6.25;;;2.60;;
74495;SDS011;62979;55.720;37.606;2023-07-13T09:34:54;6.75;;;2.50;;
74495;SDS011;62979;55.720;37.606;2023-07-13T09:37:21;5.00;;;2.50;;
74495;SDS011;62979;55.720;37.606;2023-07-13T09:39:56;6.43;;;2.20;;
74495;SDS011;62979;55.720;37.606;2023-07-13T09:42:29;6.80;;;2.78;;
74495;SDS011;62979;55.720;37.606;2023-07-13T09:45:00;5.40;;;2.80;;
74495;SDS011;62979;55.720;37.606;2023-07-13T09:47:29;5.13;;;2.28;;
74495;SDS011;62979;55.720;37.606;2023-07-13T09:50:01;5.47;;;2.67;;
74495;SDS011;62979;55.720;37.606;2023-07-13T09:52:38;7.20;;;2.95;;
74495;SDS011;62979;55.720;37.606;2023-07-13T09:55:23;7.72;;;2.55;;
74495;SDS011;62979;55.720;37.606;2023-07-13T09:57:52;6.53;;;3.10;;
74495;SDS011;62979;55.720;37.606;2023-07-13T10:00:23;4.25;;;2.30;;
74495;SDS011;62979;55.720;37.606;2023-07-13T10:03:04;4.50;;;2.85;;
74495;SDS011;62979;55.720;37.606;2023-07-13T10:05:42;5.03;;;3.08;;
74495;SDS011;62979;55.720;37.606;2023-07-13T10:08:16;6.00;;;3.22;;
74495;SDS011;62979;55.720;37.606;2023-07-13T10:10:46;4.85;;;2.55;;
74495;SDS011;62979;55.720;37.606;2023-07-13T10:13:28;4.75;;;2.88;;
74495;SDS011;62979;55.720;37.606;2023-07-13T10:15:59;5.35;;;2.80;;
74495;SDS011;62979;55.720;37.606;2023-07-13T10:18:28;3.85;;;2.70;;
74495;SDS011;62979;55.720;37.606;2023-07-13T10:21:14;5.95;;;2.40;;
74495;SDS011;62979;55.720;37.606;2023-07-13T10:23:45;3.17;;;2.55;;
74495;SDS011;62979;55.720;37.606;2023-07-13T10:26:19;4.95;;;2.55;;
74495;SDS011;62979;55.720;37.606;2023-07-13T10:28:52;5.05;;;3.03;;
74495;SDS011;62979;55.720;37.606;2023-07-13T10:31:25;4.53;;;2.47;;
74495;SDS011;62979;55.720;37.606;2023-07-13T10:33:52;7.32;;;2.60;;
74495;SDS011;62979;55.720;37.606;2023-07-13T10:36:23;4.93;;;2.83;;
74495;SDS011;62979;55.720;37.606;2023-07-13T10:39:00;4.50;;;2.60;;
74495;SDS011;62979;55.720;37.606;2023-07-13T10:41:34;3.30;;;1.90;;
74495;SDS011;62979;55.720;37.606;2023-07-13T10:44:07;4.65;;;1.90;;
74495;SDS011;62979;55.720;37.606;2023-07-13T10:47:04;8.18;;;2.83;;
74495;SDS011;62979;55.720;37.606;2023-07-13T10:49:39;8.20;;;2.97;;
74495;SDS011;62979;55.720;37.606;2023-07-13T10:58:02;3.95;;;2.92;;
74495;SDS011;62979;55.720;37.606;2023-07-13T11:00:43;3.80;;;2.20;;
74495;SDS011;62979;55.720;37.606;2023-07-13T11:03:16;8.20;;;1.90;;
74495;SDS011;62979;55.720;37.606;2023-07-13T11:05:48;5.18;;;2.10;;
74495;SDS011;62979;55.720;37.606;2023-07-13T11:08:32;4.95;;;3.35;;
74495;SDS011;62979;55.720;37.606;2023-07-13T11:11:03;4.28;;;2.75;;
74495;SDS011;62979;55.720;37.606;2023-07-13T11:14:04;3.58;;;2.03;;
74495;SDS011;62979;55.720;37.606;2023-07-13T11:16:52;6.43;;;2.47;;
74495;SDS011;62979;55.720;37.606;2023-07-13T11:19:27;4.93;;;3.22;;
74495;SDS011;62979;55.720;37.606;2023-07-13T11:22:22;4.07;;;2.92;;
74495;SDS011;62979;55.720;37.606;2023-07-13T11:25:21;6.45;;;2.50;;
74495;SDS011;62979;55.720;37.606;2023-07-13T11:28:07;8.52;;;2.40;;
74495;SDS011;62979;55.720;37.606;2023-07-13T11:30:49;5.40;;;2.38;;
74495;SDS011;62979;55.720;37.606;2023-07-13T11:36:12;5.25;;;2.25;;
74495;SDS011;62979;55.720;37.606;2023-07-13T11:38:42;4.93;;;2.50;;
74495;SDS011;62979;55.720;37.606;2023-07-13T11:41:14;6.63;;;2.60;;
74495;SDS011;62979;55.720;37.606;2023-07-13T11:43:46;3.05;;;2.03;;
74495;SDS011;62979;55.720;37.606;2023-07-13T11:46:18;6.00;;;2.53;;
74495;SDS011;62979;55.720;37.606;2023-07-13T11:48:49;6.03;;;2.78;;
74495;SDS011;62979;55.720;37.606;2023-07-13T11:51:19;3.78;;;2.60;;
74495;SDS011;62979;55.720;37.606;2023-07-13T11:53:52;5.90;;;2.67;;
74495;SDS011;62979;55.720;37.606;2023-07-13T11:56:22;4.38;;;2.70;;
74495;SDS011;62979;55.720;37.606;2023-07-13T11:58:53;5.30;;;2.60;;
74495;SDS011;62979;55.720;37.606;2023-07-13T12:01:25;5.75;;;2.88;;
74495;SDS011;62979;55.720;37.606;2023-07-13T12:03:57;5.80;;;2.75;;
74495;SDS011;62979;55.720;37.606;2023-07-13T12:06:29;4.80;;;2.60;;
74495;SDS011;62979;55.720;37.606;2023-07-13T12:08:59;7.75;;;2.47;;
74495;SDS011;62979;55.720;37.606;2023-07-13T12:11:28;4.65;;;2.67;;
74495;SDS011;62979;55.720;37.606;2023-07-13T12:13:58;5.75;;;2.70;;
74495;SDS011;62979;55.720;37.606;2023-07-13T12:16:27;6.60;;;3.05;;
74495;SDS011;62979;55.720;37.606;2023-07-13T12:18:57;4.82;;;2.60;;
74495;SDS011;62979;55.720;37.606;2023-07-13T12:21:29;6.20;;;2.60;;
74495;SDS011;62979;55.720;37.606;2023-07-13T12:23:59;8.63;;;2.70;;
74495;SDS011;62979;55.720;37.606;2023-07-13T12:26:29;5.70;;;2.70;;
74495;SDS011;62979;55.720;37.606;2023-07-13T12:28:59;8.05;;;2.75;;
74495;SDS011;62979;55.720;37.606;2023-07-13T12:31:34;7.15;;;3.13;;
74495;SDS011;62979;55.720;37.606;2023-07-13T12:34:07;4.32;;;2.58;;
74495;SDS011;62979;55.720;37.606;2023-07-13T12:36:38;5.70;;;2.08;;
74495;SDS011;62979;55.720;37.606;2023-07-13T12:39:13;5.10;;;2.38;;
74495;SDS011;62979;55.720;37.606;2023-07-13T12:41:44;4.43;;;2.60;;
74495;SDS011;62979;55.720;37.606;2023-07-13T12:44:13;3.75;;;2.50;;
74495;SDS011;62979;55.720;37.606;2023-07-13T12:49:39;3.83;;;2.33;;
74495;SDS011;62979;55.720;37.606;2023-07-13T12:52:12;4.38;;;2.33;;
74495;SDS011;62979;55.720;37.606;2023-07-13T12:54:52;6.13;;;3.05;;
74495;SDS011;62979;55.720;37.606;2023-07-13T12:57:22;5.65;;;2.03;;
74495;SDS011;62979;55.720;37.606;2023-07-13T12:59:53;4.45;;;2.55;;
74495;SDS011;62979;55.720;37.606;2023-07-13T13:02:25;3.75;;;2.22;;
74495;SDS011;62979;55.720;37.606;2023-07-13T13:04:57;8.00;;;2.92;;
74495;SDS011;62979;55.720;37.606;2023-07-13T13:07:25;6.88;;;2.90;;
74495;SDS011;62979;55.720;37.606;2023-07-13T13:09:52;7.43;;;2.47;;
74495;SDS011;62979;55.720;37.606;2023-07-13T13:12:20;2.42;;;1.33;;
74495;SDS011;62979;55.720;37.606;2023-07-13T13:14:52;4.47;;;2.20;;
74495;SDS011;62979;55.720;37.606;2023-07-13T13:17:20;4.22;;;2.50;;
74495;SDS011;62979;55.720;37.606;2023-07-13T13:19:52;8.68;;;3.53;;
74495;SDS011;62979;55.720;37.606;2023-07-13T13:22:19;5.68;;;2.33;;
74495;SDS011;62979;55.720;37.606;2023-07-13T13:24:46;6.47;;;2.75;;
74495;SDS011;62979;55.720;37.606;2023-07-13T13:27:16;5.43;;;3.22;;
74495;SDS011;62979;55.720;37.606;2023-07-13T13:29:49;4.95;;;2.10;;
74495;SDS011;62979;55.720;37.606;2023-07-13T13:32:19;5.30;;;2.90;;
74495;SDS011;62979;55.720;37.606;2023-07-13T13:34:46;8.02;;;3.05;;
74495;SDS011;62979;55.720;37.606;2023-07-13T13:37:17;5.97;;;2.53;;
74495;SDS011;62979;55.720;37.606;2023-07-13T13:39:47;5.30;;;3.10;;
74495;SDS011;62979;55.720;37.606;2023-07-13T13:42:16;5.03;;;2.70;;
74495;SDS011;62979;55.720;37.606;2023-07-13T13:44:42;7.50;;;3.30;;
74495;SDS011;62979;55.720;37.606;2023-07-13T13:47:17;5.97;;;2.58;;
74495;SDS011;62979;55.720;37.606;2023-07-13T13:49:56;4.00;;;2.42;;
74495;SDS011;62979;55.720;37.606;2023-07-13T13:52:23;8.80;;;2.72;;
74495;SDS011;62979;55.720;37.606;2023-07-13T13:54:51;5.47;;;2.83;;
74495;SDS011;62979;55.720;37.606;2023-07-13T13:57:21;10.20;;;3.28;;
74495;SDS011;62979;55.720;37.606;2023-07-13T13:59:49;6.32;;;3.40;;
74495;SDS011;62979;55.720;37.606;2023-07-13T14:02:23;4.80;;;2.80;;
74495;SDS011;62979;55.720;37.606;2023-07-13T14:04:54;7.15;;;2.92;;
74495;SDS011;62979;55.720;37.606;2023-07-13T14:07:24;7.60;;;3.35;;
74495;SDS011;62979;55.720;37.606;2023-07-13T14:09:52;7.65;;;3.28;;
74495;SDS011;62979;55.720;37.606;2023-07-13T14:12:19;5.13;;;2.72;;
74495;SDS011;62979;55.720;37.606;2023-07-13T14:14:46;7.95;;;4.07;;
74495;SDS011;62979;55.720;37.606;2023-07-13T14:17:18;7.90;;;3.80;;
74495;SDS011;62979;55.720;37.606;2023-07-13T14:19:50;9.18;;;3.72;;
74495;SDS011;62979;55.720;37.606;2023-07-13T14:22:22;6.75;;;3.30;;
74495;SDS011;62979;55.720;37.606;2023-07-13T14:24:51;7.00;;;3.33;;
74495;SDS011;62979;55.720;37.606;2023-07-13T14:27:19;5.60;;;3.15;;
74495;SDS011;62979;55.720;37.606;2023-07-13T14:29:46;6.88;;;2.42;;
74495;SDS011;62979;55.720;37.606;2023-07-13T14:32:13;6.15;;;3.65;;
74495;SDS011;62979;55.720;37.606;2023-07-13T14:34:40;7.22;;;3.65;;
74495;SDS011;62979;55.720;37.606;2023-07-13T14:37:12;7.15;;;4.28;;
74495;SDS011;62979;55.720;37.606;2023-07-13T14:39:42;5.28;;;3.05;;
74495;SDS011;62979;55.720;37.606;2023-07-13T14:42:10;6.47;;;2.42;;
74495;SDS011;62979;55.720;37.606;2023-07-13T14:44:37;8.18;;;2.72;;
74495;SDS011;62979;55.720;37.606;2023-07-13T14:47:05;5.97;;;3.03;;
74495;SDS011;62979;55.720;37.606;2023-07-13T14:49:35;5.00;;;2.42;;
74495;SDS011;62979;55.720;37.606;2023-07-13T14:52:09;6.50;;;3.38;;
74495;SDS011;62979;55.720;37.606;2023-07-13T14:54:41;8.32;;;2.78;;
74495;SDS011;62979;55.720;37.606;2023-07-13T14:57:09;6.28;;;2.92;;
74495;SDS011;62979;55.720;37.606;2023-07-13T14:59:37;5.43;;;2.40;;
74495;SDS011;62979;55.720;37.606;2023-07-13T15:04:41;3.70;;;2.47;;
74495;SDS011;62979;55.720;37.606;2023-07-13T15:07:09;4.90;;;2.92;;
74495;SDS011;62979;55.720;37.606;2023-07-13T15:09:41;6.00;;;2.97;;
74495;SDS011;62979;55.720;37.606;2023-07-13T15:12:08;6.60;;;2.65;;
74495;SDS011;62979;55.720;37.606;2023-07-13T15:14:35;4.75;;;2.88;;
74495;SDS011;62979;55.720;37.606;2023-07-13T15:17:03;4.65;;;2.47;;
74495;SDS011;62979;55.720;37.606;2023-07-13T15:19:32;5.75;;;3.40;;
74495;SDS011;62979;55.720;37.606;2023-07-13T15:22:00;7.18;;;3.08;;